D/T METAR WX W/DIR W/SPE G/SPE TEMP DEWP
15/01/19 18:20 EGJA 151820Z 21013KT 9999 BKN008 08/07 Q1019 SSW (210°) 15.0mph 8°C 7°C
15/01/19 17:50 EGJA 151750Z 22012KT 9999 BKN007 08/07 Q1019 SW (220°) 13.8mph 8°C 7°C
15/01/19 17:20 EGJA 151720Z 22015KT 9999 RADZ BKN007 08/07 Q1020 RA DZ SW (220°) 17.3mph 8°C 7°C
15/01/19 16:50 EGJA 151650Z 22013KT 9999 RADZ BKN007 08/07 Q1020 RA DZ SW (220°) 15.0mph 8°C 7°C
15/01/19 16:20 EGJA 151620Z 22013KT 9999 BKN008 08/07 Q1020 SW (220°) 15.0mph 8°C 7°C
15/01/19 15:50 EGJA 151550Z 22013KT 9999 BKN010 BKN025 09/07 Q1020 SW (220°) 15.0mph 9°C 7°C
15/01/19 14:50 EGJA 151450Z 23011KT 9999 FEW010 BKN030 09/07 Q1021 SW (230°) 12.7mph 9°C 7°C
15/01/19 14:20 EGJA 151420Z 23013KT 9999 VCSH SCT010 BKN025 08/06 Q1021 VCSH SW (230°) 15.0mph 8°C 6°C
15/01/19 13:50 EGJA 151350Z 23013KT 9999 VCSH SCT010 BKN025 08/07 Q1021 VCSH SW (230°) 15.0mph 8°C 7°C
15/01/19 13:20 EGJA 151320Z 23010KT 9999 VCSH SCT010 BKN025 09/06 Q1021 VCSH SW (230°) 11.5mph 9°C 6°C
15/01/19 12:50 EGJA 151250Z 23010KT 9999 VCSH FEW008 BKN025 08/07 Q1022 VCSH SW (230°) 11.5mph 8°C 7°C
15/01/19 12:20 EGJA 151220Z 25010KT 9999 VCSH FEW008 BKN025 08/06 Q1022 VCSH WSW (250°) 11.5mph 8°C 6°C
15/01/19 11:50 EGJA 151150Z 25010KT 9999 VCSH FEW008 BKN028 09/07 Q1022 VCSH WSW (250°) 11.5mph 9°C 7°C
15/01/19 11:20 EGJA 151120Z 23010KT 9999 VCSH SCT008 BKN020 08/07 Q1023 VCSH SW (230°) 11.5mph 8°C 7°C
15/01/19 10:20 EGJA 151020Z 23010KT 9999 SCT008 BKN020 08/07 Q1023 SW (230°) 11.5mph 8°C 7°C
15/01/19 09:50 EGJA 150950Z 23008KT 9999 SCT010 BKN020 08/07 Q1023 SW (230°) 9.2mph 8°C 7°C
15/01/19 09:20 EGJA 150920Z 22011KT 9999 -RA SCT006 BKN020 08/07 Q1023 -RA SW (220°) 12.7mph 8°C 7°C
15/01/19 08:20 EGJA 150820Z 25008KT 9999 SCT008 BKN020 08/06 Q1024 WSW (250°) 9.2mph 8°C 6°C
15/01/19 07:50 EGJA 150750Z 26009KT 9999 FEW008 BKN020 08/06 Q1023 W (260°) 10.4mph 8°C 6°C
15/01/19 07:20 EGJA 150720Z 26007KT 9999 -RA FEW008 BKN020 07/07 Q1023 -RA W (260°) 8.1mph 7°C 7°C
14/01/19 18:20 EGJA 141820Z 32009KT 9999 BKN038 08/02 Q1025 NW (320°) 10.4mph 8°C 2°C
14/01/19 17:50 EGJA 141750Z 32007KT 9999 BKN031 08/03 Q1025 NW (320°) 8.1mph 8°C 3°C
14/01/19 17:20 EGJA 141720Z 30010KT 9999 BKN035 08/02 Q1025 WNW (300°) 11.5mph 8°C 2°C
14/01/19 16:20 EGJA 141620Z 33007KT 9999 BKN035 08/03 Q1025 NNW (330°) 8.1mph 8°C 3°C
14/01/19 15:50 EGJA 141550Z 31010KT 9999 BKN035 08/02 Q1024 NW (310°) 11.5mph 8°C 2°C
14/01/19 15:20 EGJA 141520Z 32010KT 9999 BKN034 09/03 Q1024 NW (320°) 11.5mph 9°C 3°C
14/01/19 14:50 EGJA 141450Z 32009KT 9999 BKN034 09/03 Q1024 NW (320°) 10.4mph 9°C 3°C
14/01/19 14:20 EGJA 141420Z 32009KT 9999 BKN034 09/03 Q1024 NW (320°) 10.4mph 9°C 3°C
14/01/19 13:20 EGJA 141320Z 34009KT 9999 BKN034 09/03 Q1024 NNW (340°) 10.4mph 9°C 3°C
14/01/19 12:50 EGJA 141250Z 33011KT 9999 BKN034 09/03 Q1024 NNW (330°) 12.7mph 9°C 3°C
14/01/19 12:20 EGJA 141220Z 32012KT 9999 BKN033 09/03 Q1024 NW (320°) 13.8mph 9°C 3°C
14/01/19 11:50 EGJA 141150Z 32012KT 9999 BKN033 09/03 Q1024 NW (320°) 13.8mph 9°C 3°C
14/01/19 11:20 EGJA 141120Z 31013KT 9999 BKN033 09/03 Q1024 NW (310°) 15.0mph 9°C 3°C
14/01/19 10:50 EGJA 141050Z 32014KT 9999 BKN038 09/02 Q1024 NW (320°) 16.1mph 9°C 2°C
14/01/19 10:20 EGJA 141020Z 32013KT 9999 BKN037 09/03 Q1024 NW (320°) 15.0mph 9°C 3°C
14/01/19 09:50 EGJA 140950Z 33014KT 9999 BKN038 09/03 Q1024 NNW (330°) 16.1mph 9°C 3°C
14/01/19 09:20 EGJA 140920Z 33014KT 9999 BKN037 09/03 Q1023 NNW (330°) 16.1mph 9°C 3°C
14/01/19 08:50 EGJA 140850Z 32013KT 9999 BKN035 09/03 Q1023 NW (320°) 15.0mph 9°C 3°C
14/01/19 08:20 EGJA 140820Z 33013KT 9999 SCT038 09/03 Q1023 NNW (330°) 15.0mph 9°C 3°C
14/01/19 07:50 EGJA 140750Z 33015KT 9999 SCT038 08/02 Q1022 NNW (330°) 17.3mph 8°C 2°C
14/01/19 07:20 EGJA 140720Z 33014KT 9999 SCT041 09/02 Q1022 NNW (330°) 16.1mph 9°C 2°C
14/01/19 06:50 EGJA 140650Z 32015KT 9999 BKN036 09/03 Q1022 NW (320°) 17.3mph 9°C 3°C
13/01/19 17:50 EGJA 131750Z 28023KT 9999 BKN011 10/09 Q1018 W (280°) 26.5mph 10°C 9°C
13/01/19 17:20 EGJA 131720Z 28021G31KT 9999 BKN012 10/09 Q1017 W (280°) 24.2mph 35.7mph 10°C 9°C
13/01/19 16:50 EGJA 131650Z 28021G31KT 9999 BKN012 10/08 Q1018 W (280°) 24.2mph 35.7mph 10°C 8°C
13/01/19 16:20 EGJA 131620Z 27023G33KT 9999 SCT013 10/08 Q1018 W (270°) 26.5mph 38.0mph 10°C 8°C
13/01/19 15:50 EGJA 131550Z 27023G35KT 9999 SCT013 10/08 Q1017 W (270°) 26.5mph 40.3mph 10°C 8°C
13/01/19 15:20 EGJA 131520Z 27019KT 9999 SCT012 10/08 Q1017 W (270°) 21.9mph 10°C 8°C
13/01/19 14:20 EGJA 131420Z 27018G30KT 9999 SCT012 11/09 Q1018 W (270°) 20.7mph 34.5mph 11°C 9°C
13/01/19 13:50 EGJA 131350Z 27019KT 9999 BKN012 11/08 Q1019 W (270°) 21.9mph 11°C 8°C
13/01/19 13:20 EGJA 131320Z 28020KT 9999 SCT012 11/09 Q1019 W (280°) 23.0mph 11°C 9°C
13/01/19 12:50 EGJA 131250Z 27020KT 9999 SCT012 11/09 Q1019 W (270°) 23.0mph 11°C 9°C
13/01/19 12:20 EGJA 131220Z 27022KT 9999 BKN012 10/08 Q1020 W (270°) 25.3mph 10°C 8°C
13/01/19 11:50 EGJA 131150Z 27020G30KT 9999 BKN012 10/08 Q1020 W (270°) 23.0mph 34.5mph 10°C 8°C
13/01/19 11:20 EGJA 131120Z 27023KT 9999 BKN012 10/08 Q1020 W (270°) 26.5mph 10°C 8°C
13/01/19 10:50 EGJA 131050Z 27023G34KT 9999 BKN012 10/08 Q1020 W (270°) 26.5mph 39.1mph 10°C 8°C
13/01/19 10:20 EGJA 131020Z 27023KT 9999 BKN012 10/08 Q1021 W (270°) 26.5mph 10°C 8°C
13/01/19 09:50 EGJA 130950Z 27026KT 9999 SCT009 BKN012 10/08 Q1020 W (270°) 29.9mph 10°C 8°C
13/01/19 09:20 EGJA 130920Z 27024G35KT 9999 BKN009 10/08 Q1020 W (270°) 27.6mph 40.3mph 10°C 8°C
13/01/19 08:50 EGJA 130850Z 27024KT 9999 BKN009 10/09 Q1020 W (270°) 27.6mph 10°C 9°C
12/01/19 18:20 EGJA 121820Z 29011KT 9999 SCT023 10/07 Q1025 WNW (290°) 12.7mph 10°C 7°C
12/01/19 17:20 EGJA 121720Z 29018KT 9999 FEW011 SCT024 10/08 Q1025 WNW (290°) 20.7mph 10°C 8°C
12/01/19 16:50 EGJA 121650Z 29018KT 9999 FEW009 BKN026 10/08 Q1025 WNW (290°) 20.7mph 10°C 8°C
12/01/19 15:50 EGJA 121550Z 28017KT 9999 SCT010 BKN030 10/09 Q1025 W (280°) 19.6mph 10°C 9°C
12/01/19 15:20 EGJA 121520Z 28019KT 9999 SCT008 BKN032 10/09 Q1025 W (280°) 21.9mph 10°C 9°C
12/01/19 14:20 EGJA 121420Z 28013KT 9999 SCT010 10/09 Q1026 W (280°) 15.0mph 10°C 9°C
12/01/19 13:50 EGJA 121350Z 28018KT 9999 SCT008 10/09 Q1026 W (280°) 20.7mph 10°C 9°C
12/01/19 13:20 EGJA 121320Z 27016KT 9999 -DZ FEW008 BKN010 10/09 Q1026 -DZ W (270°) 18.4mph 10°C 9°C
12/01/19 12:50 EGJA 121250Z 27016KT 9999 SCT010 10/09 Q1026 W (270°) 18.4mph 10°C 9°C
12/01/19 12:20 EGJA 121220Z 27019KT 9999 BKN010 10/09 Q1027 W (270°) 21.9mph 10°C 9°C
12/01/19 11:20 EGJA 121120Z 27017KT 9999 SCT009 BKN015 10/09 Q1027 W (270°) 19.6mph 10°C 9°C
12/01/19 10:50 EGJA 121050Z 27016KT 9999 SCT007 BKN015 10/09 Q1028 W (270°) 18.4mph 10°C 9°C
12/01/19 10:20 EGJA 121020Z 27016KT 9999 SCT007 BKN015 10/09 Q1028 W (270°) 18.4mph 10°C 9°C
12/01/19 09:50 EGJA 120950Z 27017KT 9999 SCT007 BKN015 09/08 Q1028 W (270°) 19.6mph 9°C 8°C
12/01/19 09:20 EGJA 120920Z 27016KT 9999 SCT007 BKN015 09/08 Q1029 W (270°) 18.4mph 9°C 8°C
12/01/19 08:50 EGJA 120850Z 27017KT 9999 FEW007 SCT013 BKN019 09/08 Q1029 RERA REDZ W (270°) 19.6mph 9°C 8°C
12/01/19 08:20 EGJA 120820Z 27017KT 5000 RADZ SCT003 BKN009 09/08 Q1029 RA DZ W (270°) 19.6mph 9°C 8°C
12/01/19 07:50 EGJA 120750Z 27017KT 9999 -RADZ SCT009 BKN018 09/08 Q1029 -RA -DZ W (270°) 19.6mph 9°C 8°C
12/01/19 07:20 EGJA 120720Z 27017KT 9999 SCT012 SCT025 09/08 Q1029 W (270°) 19.6mph 9°C 8°C
12/01/19 06:50 EGJA 120650Z 27014KT 9999 FEW012 SCT022 09/07 Q1029 W (270°) 16.1mph 9°C 7°C
11/01/19 17:50 EGJA 111750Z 35009KT 9999 FEW018 BKN049 08/05 Q1032 N (350°) 10.4mph 8°C 5°C
11/01/19 17:20 EGJA 111720Z 36009KT 9999 FEW018 BKN048 08/05 Q1032 N (360°) 10.4mph 8°C 5°C
11/01/19 16:50 EGJA 111650Z 35009KT 9999 FEW018 BKN048 08/05 Q1032 N (350°) 10.4mph 8°C 5°C
11/01/19 16:20 EGJA 111620Z 35011KT 9999 FEW015 BKN035 08/05 Q1031 N (350°) 12.7mph 8°C 5°C
11/01/19 15:50 EGJA 111550Z 35010KT 9999 FEW014 BKN034 08/06 Q1031 N (350°) 11.5mph 8°C 6°C
11/01/19 15:20 EGJA 111520Z 34011KT 9999 FEW016 BKN034 08/05 Q1031 NNW (340°) 12.7mph 8°C 5°C
11/01/19 14:50 EGJA 111450Z 35011KT 9999 FEW015 BKN034 09/06 Q1031 N (350°) 12.7mph 9°C 6°C
11/01/19 14:20 EGJA 111420Z 35011KT 9999 FEW015 BKN038 09/06 Q1031 N (350°) 12.7mph 9°C 6°C
11/01/19 13:50 EGJA 111350Z 35011KT 9999 SCT015 BKN032 08/06 Q1031 N (350°) 12.7mph 8°C 6°C
11/01/19 13:20 EGJA 111320Z 35011KT 9999 SCT016 BKN032 09/06 Q1031 N (350°) 12.7mph 9°C 6°C
11/01/19 12:50 EGJA 111250Z 35010KT 9999 SCT016 BKN035 09/06 Q1031 N (350°) 11.5mph 9°C 6°C
11/01/19 12:20 EGJA 111220Z 35011KT 9999 BKN016 BKN040 08/06 Q1031 N (350°) 12.7mph 8°C 6°C
11/01/19 11:50 EGJA 111150Z 35011KT 9999 BKN020 BKN040 09/06 Q1031 N (350°) 12.7mph 9°C 6°C
11/01/19 11:20 EGJA 111120Z 35013KT 9999 BKN020 09/05 Q1031 N (350°) 15.0mph 9°C 5°C
11/01/19 10:50 EGJA 111050Z 35012KT 9999 SCT018 BKN048 09/05 Q1031 N (350°) 13.8mph 9°C 5°C
11/01/19 10:20 EGJA 111020Z 34012KT 9999 SCT018 BKN048 09/05 Q1031 NNW (340°) 13.8mph 9°C 5°C
11/01/19 09:50 EGJA 110950Z 34012KT 9999 SCT020 BKN048 08/05 Q1031 NNW (340°) 13.8mph 8°C 5°C
11/01/19 09:20 EGJA 110920Z 34011KT 9999 SCT021 BKN049 09/05 Q1031 NNW (340°) 12.7mph 9°C 5°C
11/01/19 08:50 EGJA 110850Z 35011KT 9999 SCT021 08/05 Q1031 N (350°) 12.7mph 8°C 5°C
11/01/19 08:20 EGJA 110820Z 34011KT 9999 -RA SCT025 BKN047 08/04 Q1030 -RA NNW (340°) 12.7mph 8°C 4°C
11/01/19 07:50 EGJA 110750Z 35013KT 9999 FEW025 BKN047 08/03 Q1030 N (350°) 15.0mph 8°C 3°C
11/01/19 07:20 EGJA 110720Z 34015KT 9999 SCT030 BKN045 09/04 Q1030 NNW (340°) 17.3mph 9°C 4°C
11/01/19 06:50 EGJA 110650Z 34015KT 9999 SCT030 BKN045 09/04 Q1030 NNW (340°) 17.3mph 9°C 4°C
10/01/19 18:20 EGJA 101820Z 33008KT 9999 SCT020 06/02 Q1030 NNW (330°) 9.2mph 6°C 2°C
10/01/19 17:50 EGJA 101750Z 34009KT 9999 SCT020 06/01 Q1030 NNW (340°) 10.4mph 6°C 1°C
10/01/19 17:20 EGJA 101720Z 34009KT 9999 SCT020 06/01 Q1030 NNW (340°) 10.4mph 6°C 1°C
10/01/19 16:50 EGJA 101650Z 34008KT 9999 SCT020 05/01 Q1030 NNW (340°) 9.2mph 5°C 1°C
10/01/19 15:50 EGJA 101550Z 33009KT 9999 SCT020 06/02 Q1030 NNW (330°) 10.4mph 6°C 2°C
10/01/19 15:20 EGJA 101520Z 35008KT 9999 SCT020 06/02 Q1031 N (350°) 9.2mph 6°C 2°C
10/01/19 14:50 EGJA 101450Z 35008KT 9999 SCT020 06/02 Q1031 N (350°) 9.2mph 6°C 2°C
10/01/19 14:20 EGJA 101420Z 35009KT 9999 SCT020 06/02 Q1031 N (350°) 10.4mph 6°C 2°C
10/01/19 13:50 EGJA 101350Z 34008KT 320V090 9999 SCT020 06/02 Q1031 NNW (340°) 9.2mph 6°C 2°C
10/01/19 13:20 EGJA 101320Z 36008KT 9999 SCT020 06/02 Q1031 N (360°) 9.2mph 6°C 2°C
10/01/19 12:50 EGJA 101250Z 36007KT 9999 SCT020 06/02 Q1031 N (360°) 8.1mph 6°C 2°C
10/01/19 12:20 EGJA 101220Z 35007KT 9999 SCT020 06/02 Q1031 N (350°) 8.1mph 6°C 2°C
10/01/19 11:20 EGJA 101120Z 36006KT 9999 FEW020 06/02 Q1031 N (360°) 6.9mph 6°C 2°C
10/01/19 10:50 EGJA 101050Z 02007KT 9999 SCT020 06/02 Q1032 NNE (20°) 8.1mph 6°C 2°C
10/01/19 10:20 EGJA 101020Z 36008KT 9999 SCT020 06/02 Q1032 N (360°) 9.2mph 6°C 2°C
10/01/19 09:50 EGJA 100950Z 36009KT 9999 SCT022 06/01 Q1031 N (360°) 10.4mph 6°C 1°C
10/01/19 09:20 EGJA 100920Z 01008KT 9999 BKN029 05/01 Q1031 N (10°) 9.2mph 5°C 1°C
10/01/19 08:50 EGJA 100850Z 01007KT 9999 SCT022 05/01 Q1031 N (10°) 8.1mph 5°C 1°C
10/01/19 08:20 EGJA 100820Z 01007KT 9999 SCT020 05/01 Q1031 N (10°) 8.1mph 5°C 1°C
10/01/19 07:50 EGJA 100750Z 02008KT 9999 SCT019 05/01 Q1031 NNE (20°) 9.2mph 5°C 1°C
10/01/19 07:20 EGJA 100720Z 01008KT 9999 SCT019 05/01 Q1031 N (10°) 9.2mph 5°C 1°C
10/01/19 06:50 EGJA 100650Z 01009KT 9999 BKN019 05/01 Q1030 N (10°) 10.4mph 5°C 1°C
9/01/19 18:20 EGJA 091820Z 01012KT 9999 BKN030 06/M00 Q1030 N (10°) 13.8mph 6°C 0°C
9/01/19 17:50 EGJA 091750Z 02012KT 9999 BKN026 06/00 Q1030 NNE (20°) 13.8mph 6°C 0°C
9/01/19 17:20 EGJA 091720Z 01013KT 9999 BKN027 06/01 Q1030 N (10°) 15.0mph 6°C 1°C
9/01/19 16:50 EGJA 091650Z 01012KT 9999 BKN027 06/01 Q1029 N (10°) 13.8mph 6°C 1°C
9/01/19 16:20 EGJA 091620Z 36012KT 9999 FEW020 SCT027 06/01 Q1029 N (360°) 13.8mph 6°C 1°C
9/01/19 15:50 EGJA 091550Z 01013KT 9999 FEW020 SCT030 06/00 Q1029 N (10°) 15.0mph 6°C 0°C
9/01/19 15:20 EGJA 091520Z 01011KT 9999 SCT030 06/M00 Q1029 N (10°) 12.7mph 6°C 0°C
9/01/19 14:50 EGJA 091450Z 01013KT 9999 SCT028 06/00 Q1029 N (10°) 15.0mph 6°C 0°C
9/01/19 14:20 EGJA 091420Z 36013KT 9999 SCT026 06/00 Q1029 N (360°) 15.0mph 6°C 0°C
9/01/19 13:50 EGJA 091350Z 01013KT 9999 FEW025 SCT030 06/00 Q1029 N (10°) 15.0mph 6°C 0°C
9/01/19 13:20 EGJA 091320Z 36012KT 9999 FEW025 SCT030 06/01 Q1029 N (360°) 13.8mph 6°C 1°C
9/01/19 12:50 EGJA 091250Z 01011KT 9999 FEW025 SCT030 07/01 Q1029 N (10°) 12.7mph 7°C 1°C
9/01/19 12:20 EGJA 091220Z 36014KT 9999 FEW025 SCT030 07/02 Q1030 N (360°) 16.1mph 7°C 2°C
9/01/19 11:50 EGJA 091150Z 36012KT 9999 FEW025 SCT030 06/01 Q1030 N (360°) 13.8mph 6°C 1°C
9/01/19 11:20 EGJA 091120Z 36012KT 9999 FEW025 SCT030 06/01 Q1030 N (360°) 13.8mph 6°C 1°C
9/01/19 10:50 EGJA 091050Z 36013KT 9999 FEW025 SCT030 07/00 Q1030 N (360°) 15.0mph 7°C 0°C
9/01/19 10:20 EGJA 091020Z 36014KT 9999 FEW025 SCT030 06/01 Q1030 N (360°) 16.1mph 6°C 1°C
9/01/19 09:50 EGJA 090950Z 36013KT 9999 FEW025 SCT030 06/00 Q1030 N (360°) 15.0mph 6°C 0°C
9/01/19 09:20 EGJA 090920Z 36013KT 9999 FEW025 SCT030 06/00 Q1030 N (360°) 15.0mph 6°C 0°C